sensor_id;sensor_type;location;lat;lon;timestamp;pressure;altitude;pressure_sealevel;temperature;humidity
68230;BME280;55048;52.220;5.160;2023-02-28T00:00:50;102952.44;;;3.08;71.80
68230;BME280;55048;52.220;5.160;2023-02-28T00:03:15;103073.13;;;3.80;72.46
68230;BME280;55048;52.220;5.160;2023-02-28T00:05:41;103119.03;;;4.07;71.63
68230;BME280;55048;52.220;5.160;2023-02-28T00:08:07;103091.16;;;3.85;71.83
68230;BME280;55048;52.220;5.160;2023-02-28T00:10:32;103071.34;;;3.81;72.08
68230;BME280;55048;52.220;5.160;2023-02-28T00:13:05;103006.47;;;3.41;71.96
68230;BME280;55048;52.220;5.160;2023-02-28T00:15:31;103087.44;;;3.97;71.84
68230;BME280;55048;52.220;5.160;2023-02-28T00:17:56;103106.28;;;4.02;71.73
68230;BME280;55048;52.220;5.160;2023-02-28T00:20:22;103048.88;;;3.77;72.00
68230;BME280;55048;52.220;5.160;2023-02-28T00:22:50;103129.72;;;4.25;71.78
68230;BME280;55048;52.220;5.160;2023-02-28T00:25:19;103008.16;;;3.52;71.72
68230;BME280;55048;52.220;5.160;2023-02-28T00:27:45;103080.06;;;4.01;71.81
68230;BME280;55048;52.220;5.160;2023-02-28T00:30:13;103080.63;;;4.04;71.97
68230;BME280;55048;52.220;5.160;2023-02-28T00:32:39;103073.97;;;4.00;71.78
68230;BME280;55048;52.220;5.160;2023-02-28T00:35:06;103025.91;;;3.69;72.30
68230;BME280;55048;52.220;5.160;2023-02-28T00:37:31;103061.50;;;3.83;72.83
68230;BME280;55048;52.220;5.160;2023-02-28T00:39:57;102980.72;;;3.45;72.34
68230;BME280;55048;52.220;5.160;2023-02-28T00:42:23;103018.41;;;3.65;72.87
68230;BME280;55048;52.220;5.160;2023-02-28T00:44:49;103052.38;;;3.87;72.67
68230;BME280;55048;52.220;5.160;2023-02-28T00:47:14;102978.19;;;3.24;72.64
68230;BME280;55048;52.220;5.160;2023-02-28T00:49:40;103084.50;;;4.10;72.44
68230;BME280;55048;52.220;5.160;2023-02-28T00:52:05;103101.69;;;4.14;72.68
68230;BME280;55048;52.220;5.160;2023-02-28T00:54:31;103049.75;;;3.87;72.33
68230;BME280;55048;52.220;5.160;2023-02-28T00:56:56;103019.25;;;3.75;72.36
68230;BME280;55048;52.220;5.160;2023-02-28T00:59:24;103024.25;;;3.78;72.69
68230;BME280;55048;52.220;5.160;2023-02-28T01:01:49;103010.94;;;3.70;72.40
68230;BME280;55048;52.220;5.160;2023-02-28T01:04:15;102986.44;;;3.60;72.53
68230;BME280;55048;52.220;5.160;2023-02-28T01:06:41;103051.41;;;3.98;72.51
68230;BME280;55048;52.220;5.160;2023-02-28T01:09:09;103096.72;;;4.30;72.44
68230;BME280;55048;52.220;5.160;2023-02-28T01:11:35;103118.88;;;4.47;72.43
68230;BME280;55048;52.220;5.160;2023-02-28T01:14:01;103126.78;;;4.47;72.56
68230;BME280;55048;52.220;5.160;2023-02-28T01:16:27;102955.53;;;3.42;72.31
68230;BME280;55048;52.220;5.160;2023-02-28T01:18:53;103016.47;;;3.86;72.51
68230;BME280;55048;52.220;5.160;2023-02-28T01:21:20;103120.16;;;4.53;72.57
68230;BME280;55048;52.220;5.160;2023-02-28T01:23:47;103090.47;;;4.22;72.54
68230;BME280;55048;52.220;5.160;2023-02-28T01:26:16;103123.47;;;4.55;72.47
68230;BME280;55048;52.220;5.160;2023-02-28T01:28:43;103130.41;;;4.46;72.17
68230;BME280;55048;52.220;5.160;2023-02-28T01:31:09;102902.50;;;3.08;72.73
68230;BME280;55048;52.220;5.160;2023-02-28T01:33:37;103074.13;;;4.28;72.51
68230;BME280;55048;52.220;5.160;2023-02-28T01:38:30;103108.34;;;4.47;72.74
68230;BME280;55048;52.220;5.160;2023-02-28T01:40:56;103039.88;;;4.08;72.76
68230;BME280;55048;52.220;5.160;2023-02-28T01:43:25;103130.13;;;4.49;72.83
68230;BME280;55048;52.220;5.160;2023-02-28T01:45:55;103104.88;;;4.47;73.14
68230;BME280;55048;52.220;5.160;2023-02-28T01:48:34;102966.47;;;3.57;72.87
68230;BME280;55048;52.220;5.160;2023-02-28T01:51:06;103110.72;;;4.50;72.91
68230;BME280;55048;52.220;5.160;2023-02-28T01:53:38;103038.25;;;4.07;73.30
68230;BME280;55048;52.220;5.160;2023-02-28T01:56:05;102997.38;;;3.84;73.13
68230;BME280;55048;52.220;5.160;2023-02-28T01:58:32;102953.88;;;3.70;73.14
68230;BME280;55048;52.220;5.160;2023-02-28T02:00:57;103042.53;;;4.18;72.77
68230;BME280;55048;52.220;5.160;2023-02-28T02:03:23;103029.66;;;4.15;72.96
68230;BME280;55048;52.220;5.160;2023-02-28T02:05:49;103063.16;;;4.32;73.33
68230;BME280;55048;52.220;5.160;2023-02-28T02:08:21;103057.22;;;4.30;73.08
68230;BME280;55048;52.220;5.160;2023-02-28T02:10:56;103081.72;;;4.60;73.01
68230;BME280;55048;52.220;5.160;2023-02-28T02:13:48;103077.97;;;4.63;73.15
68230;BME280;55048;52.220;5.160;2023-02-28T02:16:40;103087.38;;;4.65;72.57
68230;BME280;55048;52.220;5.160;2023-02-28T02:23:09;103068.94;;;4.55;72.91
68230;BME280;55048;52.220;5.160;2023-02-28T02:28:43;103085.56;;;4.66;73.06
68230;BME280;55048;52.220;5.160;2023-02-28T02:31:29;103080.28;;;4.66;72.85
68230;BME280;55048;52.220;5.160;2023-02-28T02:36:46;103013.84;;;4.25;72.68
68230;BME280;55048;52.220;5.160;2023-02-28T02:39:19;103063.41;;;4.58;72.96
68230;BME280;55048;52.220;5.160;2023-02-28T02:41:51;103057.84;;;4.52;72.84
68230;BME280;55048;52.220;5.160;2023-02-28T02:46:47;103078.06;;;4.71;73.18
68230;BME280;55048;52.220;5.160;2023-02-28T02:49:27;103078.78;;;4.73;73.19
68230;BME280;55048;52.220;5.160;2023-02-28T02:51:54;103054.13;;;4.54;73.22
68230;BME280;55048;52.220;5.160;2023-02-28T02:54:28;103053.84;;;4.57;73.03
68230;BME280;55048;52.220;5.160;2023-02-28T02:56:57;102920.50;;;3.71;73.01
68230;BME280;55048;52.220;5.160;2023-02-28T02:59:24;103031.13;;;4.37;73.57
68230;BME280;55048;52.220;5.160;2023-02-28T03:02:00;102972.81;;;4.03;73.29
68230;BME280;55048;52.220;5.160;2023-02-28T03:04:33;103086.84;;;4.71;73.39
68230;BME280;55048;52.220;5.160;2023-02-28T03:07:00;103042.91;;;4.43;73.43
68230;BME280;55048;52.220;5.160;2023-02-28T03:09:26;103088.06;;;4.77;73.22
68230;BME280;55048;52.220;5.160;2023-02-28T03:11:54;103083.06;;;4.74;73.86
68230;BME280;55048;52.220;5.160;2023-02-28T03:18:03;103072.16;;;4.49;74.40
68230;BME280;55048;52.220;5.160;2023-02-28T03:23:31;103067.81;;;4.68;74.23
68230;BME280;55048;52.220;5.160;2023-02-28T03:26:03;103067.94;;;4.66;74.26
68230;BME280;55048;52.220;5.160;2023-02-28T03:28:43;103068.94;;;4.65;73.89
68230;BME280;55048;52.220;5.160;2023-02-28T03:31:23;103049.53;;;4.56;73.92
68230;BME280;55048;52.220;5.160;2023-02-28T03:33:58;103069.22;;;4.72;73.63
68230;BME280;55048;52.220;5.160;2023-02-28T03:36:30;103055.06;;;4.63;73.59
68230;BME280;55048;52.220;5.160;2023-02-28T03:39:05;102971.59;;;4.07;74.25
68230;BME280;55048;52.220;5.160;2023-02-28T03:44:12;103045.13;;;4.57;73.80
68230;BME280;55048;52.220;5.160;2023-02-28T03:46:46;103085.44;;;4.77;73.64
68230;BME280;55048;52.220;5.160;2023-02-28T03:49:17;103014.34;;;4.38;73.90
68230;BME280;55048;52.220;5.160;2023-02-28T03:51:44;102969.94;;;4.06;73.83
68230;BME280;55048;52.220;5.160;2023-02-28T03:54:18;102986.13;;;4.21;73.74
68230;BME280;55048;52.220;5.160;2023-02-28T03:59:32;103066.28;;;4.65;73.84
68230;BME280;55048;52.220;5.160;2023-02-28T04:01:59;103026.97;;;4.44;73.89
68230;BME280;55048;52.220;5.160;2023-02-28T04:04:25;103049.41;;;4.58;73.71
68230;BME280;55048;52.220;5.160;2023-02-28T04:07:01;103084.56;;;4.86;73.72
68230;BME280;55048;52.220;5.160;2023-02-28T04:09:27;102886.72;;;3.47;73.58
68230;BME280;55048;52.220;5.160;2023-02-28T04:11:53;103012.56;;;4.29;74.16
68230;BME280;55048;52.220;5.160;2023-02-28T04:14:20;103003.97;;;4.27;73.87
68230;BME280;55048;52.220;5.160;2023-02-28T04:16:46;103083.06;;;4.74;73.95
68230;BME280;55048;52.220;5.160;2023-02-28T04:19:12;103054.94;;;4.55;74.23
68230;BME280;55048;52.220;5.160;2023-02-28T04:21:41;103083.06;;;4.74;74.26
68230;BME280;55048;52.220;5.160;2023-02-28T04:24:20;103094.00;;;4.79;74.23
68230;BME280;55048;52.220;5.160;2023-02-28T04:26:49;103039.03;;;4.37;74.64
68230;BME280;55048;52.220;5.160;2023-02-28T04:29:23;103038.19;;;4.37;74.59
68230;BME280;55048;52.220;5.160;2023-02-28T04:31:49;103035.00;;;4.33;75.07
68230;BME280;55048;52.220;5.160;2023-02-28T04:34:15;103024.91;;;4.19;75.14
68230;BME280;55048;52.220;5.160;2023-02-28T04:36:41;103087.38;;;4.65;75.18
68230;BME280;55048;52.220;5.160;2023-02-28T04:39:07;102996.38;;;4.04;75.03
68230;BME280;55048;52.220;5.160;2023-02-28T04:41:34;103015.19;;;4.19;75.12
68230;BME280;55048;52.220;5.160;2023-02-28T04:44:00;103090.84;;;4.66;75.30
68230;BME280;55048;52.220;5.160;2023-02-28T04:46:25;103095.03;;;4.58;75.48
68230;BME280;55048;52.220;5.160;2023-02-28T04:48:50;103005.81;;;4.07;75.37
68230;BME280;55048;52.220;5.160;2023-02-28T04:51:17;103055.69;;;4.28;75.52
68230;BME280;55048;52.220;5.160;2023-02-28T04:53:43;103076.59;;;4.49;75.27
68230;BME280;55048;52.220;5.160;2023-02-28T04:56:14;103095.03;;;4.58;75.27
68230;BME280;55048;52.220;5.160;2023-02-28T04:58:39;103033.63;;;4.19;75.32
68230;BME280;55048;52.220;5.160;2023-02-28T05:01:28;103001.38;;;3.98;74.86
68230;BME280;55048;52.220;5.160;2023-02-28T05:03:54;102981.72;;;3.92;74.96
68230;BME280;55048;52.220;5.160;2023-02-28T05:06:22;102970.34;;;3.82;74.73
68230;BME280;55048;52.220;5.160;2023-02-28T05:08:49;103006.38;;;4.11;74.71
68230;BME280;55048;52.220;5.160;2023-02-28T05:11:20;103029.09;;;4.12;74.67
68230;BME280;55048;52.220;5.160;2023-02-28T05:13:46;103023.41;;;4.06;74.66
68230;BME280;55048;52.220;5.160;2023-02-28T05:16:12;102982.25;;;3.57;74.51
68230;BME280;55048;52.220;5.160;2023-02-28T05:18:38;103098.66;;;4.28;74.42
68230;BME280;55048;52.220;5.160;2023-02-28T05:21:03;103050.69;;;3.96;73.84
68230;BME280;55048;52.220;5.160;2023-02-28T05:23:29;103095.06;;;4.29;73.73
68230;BME280;55048;52.220;5.160;2023-02-28T05:25:56;103094.34;;;4.27;73.32
68230;BME280;55048;52.220;5.160;2023-02-28T05:28:22;103093.53;;;4.27;73.04
68230;BME280;55048;52.220;5.160;2023-02-28T05:30:47;103031.44;;;3.86;72.42
68230;BME280;55048;52.220;5.160;2023-02-28T05:33:13;103093.94;;;4.22;72.41
68230;BME280;55048;52.220;5.160;2023-02-28T05:35:40;103097.16;;;4.16;71.28
68230;BME280;55048;52.220;5.160;2023-02-28T05:38:06;102991.69;;;3.50;70.36
68230;BME280;55048;52.220;5.160;2023-02-28T05:40:31;103030.34;;;3.69;71.06
68230;BME280;55048;52.220;5.160;2023-02-28T05:42:56;102998.84;;;3.48;70.79
68230;BME280;55048;52.220;5.160;2023-02-28T05:45:25;103104.06;;;4.07;70.18
68230;BME280;55048;52.220;5.160;2023-02-28T05:47:54;103023.25;;;3.60;70.07
68230;BME280;55048;52.220;5.160;2023-02-28T05:50:19;103070.91;;;3.76;68.92
68230;BME280;55048;52.220;5.160;2023-02-28T05:52:49;102991.94;;;3.37;69.41
68230;BME280;55048;52.220;5.160;2023-02-28T05:55:15;103098.38;;;3.93;68.68
68230;BME280;55048;52.220;5.160;2023-02-28T05:57:41;103080.06;;;3.81;69.05
68230;BME280;55048;52.220;5.160;2023-02-28T06:00:08;103049.69;;;3.68;68.89
68230;BME280;55048;52.220;5.160;2023-02-28T06:02:39;102984.03;;;3.27;68.66
68230;BME280;55048;52.220;5.160;2023-02-28T06:05:11;103053.16;;;3.68;68.85
68230;BME280;55048;52.220;5.160;2023-02-28T06:07:38;103064.81;;;3.75;68.81
68230;BME280;55048;52.220;5.160;2023-02-28T06:10:04;103058.16;;;3.71;68.72
68230;BME280;55048;52.220;5.160;2023-02-28T06:12:29;102955.47;;;3.03;68.45
68230;BME280;55048;52.220;5.160;2023-02-28T06:14:54;103058.16;;;3.62;68.51
68230;BME280;55048;52.220;5.160;2023-02-28T06:17:20;103081.28;;;3.68;68.89
68230;BME280;55048;52.220;5.160;2023-02-28T06:19:45;103020.81;;;3.18;69.63
68230;BME280;55048;52.220;5.160;2023-02-28T06:22:10;103123.69;;;3.74;69.61
68230;BME280;55048;52.220;5.160;2023-02-28T06:24:36;103107.16;;;3.53;70.97
68230;BME280;55048;52.220;5.160;2023-02-28T06:27:01;103104.88;;;3.39;71.53
68230;BME280;55048;52.220;5.160;2023-02-28T06:29:31;103036.81;;;3.05;72.45
68230;BME280;55048;52.220;5.160;2023-02-28T06:31:56;103099.59;;;3.29;72.63
68230;BME280;55048;52.220;5.160;2023-02-28T06:34:22;103093.34;;;3.30;72.62
68230;BME280;55048;52.220;5.160;2023-02-28T06:36:50;103070.34;;;3.13;73.46
68230;BME280;55048;52.220;5.160;2023-02-28T06:39:16;103125.28;;;3.46;73.71
68230;BME280;55048;52.220;5.160;2023-02-28T06:41:41;103015.38;;;2.79;73.40
68230;BME280;55048;52.220;5.160;2023-02-28T06:44:12;103102.91;;;3.31;73.36
68230;BME280;55048;52.220;5.160;2023-02-28T06:46:41;103126.06;;;3.37;74.55
68230;BME280;55048;52.220;5.160;2023-02-28T06:49:07;103128.88;;;3.45;74.96
68230;BME280;55048;52.220;5.160;2023-02-28T06:51:37;103101.94;;;3.22;75.24
68230;BME280;55048;52.220;5.160;2023-02-28T06:54:04;103090.22;;;3.05;74.50
68230;BME280;55048;52.220;5.160;2023-02-28T06:56:30;103128.31;;;3.42;76.04
68230;BME280;55048;52.220;5.160;2023-02-28T06:58:56;103143.38;;;3.40;76.06
68230;BME280;55048;52.220;5.160;2023-02-28T07:01:22;103132.13;;;3.28;75.84
68230;BME280;55048;52.220;5.160;2023-02-28T07:03:50;103141.31;;;3.43;75.12
68230;BME280;55048;52.220;5.160;2023-02-28T07:06:26;103102.19;;;3.19;76.00
68230;BME280;55048;52.220;5.160;2023-02-28T07:08:53;103123.94;;;3.31;76.65
68230;BME280;55048;52.220;5.160;2023-02-28T07:11:20;103150.88;;;3.44;76.38
68230;BME280;55048;52.220;5.160;2023-02-28T07:13:48;103125.75;;;3.30;75.87
68230;BME280;55048;52.220;5.160;2023-02-28T07:16:14;103151.97;;;3.42;75.98
68230;BME280;55048;52.220;5.160;2023-02-28T07:18:39;103162.13;;;3.56;75.65
68230;BME280;55048;52.220;5.160;2023-02-28T07:21:08;103145.25;;;3.58;75.97
68230;BME280;55048;52.220;5.160;2023-02-28T07:23:34;103076.97;;;3.17;76.03
68230;BME280;55048;52.220;5.160;2023-02-28T07:25:59;103143.75;;;3.66;75.76
68230;BME280;55048;52.220;5.160;2023-02-28T07:28:25;103147.91;;;3.68;75.82
68230;BME280;55048;52.220;5.160;2023-02-28T07:30:50;103078.13;;;3.24;75.95
68230;BME280;55048;52.220;5.160;2023-02-28T07:33:16;103100.88;;;3.44;76.54
68230;BME280;55048;52.220;5.160;2023-02-28T07:35:42;103154.16;;;3.77;75.92
68230;BME280;55048;52.220;5.160;2023-02-28T07:38:07;103118.50;;;3.53;76.29
68230;BME280;55048;52.220;5.160;2023-02-28T07:40:34;103104.81;;;3.50;76.56
68230;BME280;55048;52.220;5.160;2023-02-28T07:43:00;103146.38;;;3.66;77.70
68230;BME280;55048;52.220;5.160;2023-02-28T07:45:27;103137.44;;;3.38;79.50
68230;BME280;55048;52.220;5.160;2023-02-28T07:47:54;103143.75;;;3.35;79.97
68230;BME280;55048;52.220;5.160;2023-02-28T07:50:20;103020.69;;;2.58;78.66
68230;BME280;55048;52.220;5.160;2023-02-28T07:52:45;103045.41;;;2.76;78.97
68230;BME280;55048;52.220;5.160;2023-02-28T07:55:11;103007.69;;;2.57;79.78
68230;BME280;55048;52.220;5.160;2023-02-28T07:57:37;103143.81;;;3.45;78.75
68230;BME280;55048;52.220;5.160;2023-02-28T08:00:04;103146.75;;;3.51;78.95
68230;BME280;55048;52.220;5.160;2023-02-28T08:02:36;103141.09;;;3.56;78.32
68230;BME280;55048;52.220;5.160;2023-02-28T08:05:02;103149.16;;;3.64;77.97
68230;BME280;55048;52.220;5.160;2023-02-28T08:07:28;103080.31;;;3.19;78.44
68230;BME280;55048;52.220;5.160;2023-02-28T08:09:53;103092.34;;;3.21;78.74
68230;BME280;55048;52.220;5.160;2023-02-28T08:12:18;103101.97;;;3.32;78.79
68230;BME280;55048;52.220;5.160;2023-02-28T08:14:44;102955.22;;;2.45;79.25
68230;BME280;55048;52.220;5.160;2023-02-28T08:17:10;102875.56;;;2.04;79.24
68230;BME280;55048;52.220;5.160;2023-02-28T08:19:36;103153.06;;;3.79;78.91
68230;BME280;55048;52.220;5.160;2023-02-28T08:22:02;103041.03;;;3.17;78.84
68230;BME280;55048;52.220;5.160;2023-02-28T08:24:27;103092.19;;;3.53;78.17
68230;BME280;55048;52.220;5.160;2023-02-28T08:26:55;103153.94;;;3.99;78.33
68230;BME280;55048;52.220;5.160;2023-02-28T08:29:20;103127.44;;;3.81;78.43
68230;BME280;55048;52.220;5.160;2023-02-28T08:31:46;103028.44;;;3.30;78.41
68230;BME280;55048;52.220;5.160;2023-02-28T08:34:13;103152.56;;;4.15;78.40
68230;BME280;55048;52.220;5.160;2023-02-28T08:40:26;103116.09;;;4.00;78.20
68230;BME280;55048;52.220;5.160;2023-02-28T08:42:51;103083.81;;;3.79;78.63
68230;BME280;55048;52.220;5.160;2023-02-28T08:45:17;103158.56;;;4.26;79.63
68230;BME280;55048;52.220;5.160;2023-02-28T08:47:42;103159.66;;;4.33;78.79
68230;BME280;55048;52.220;5.160;2023-02-28T08:50:08;103029.75;;;3.55;78.17
68230;BME280;55048;52.220;5.160;2023-02-28T08:52:33;103008.16;;;3.52;78.08
68230;BME280;55048;52.220;5.160;2023-02-28T08:54:59;103082.16;;;3.97;78.62
68230;BME280;55048;52.220;5.160;2023-02-28T08:57:26;102987.25;;;3.50;78.59
68230;BME280;55048;52.220;5.160;2023-02-28T08:59:52;103170.75;;;4.56;79.01
68230;BME280;55048;52.220;5.160;2023-02-28T09:02:18;103083.81;;;4.18;79.26
68230;BME280;55048;52.220;5.160;2023-02-28T09:04:44;103164.22;;;4.60;79.58
68230;BME280;55048;52.220;5.160;2023-02-28T09:07:11;103171.59;;;4.67;79.10
68230;BME280;55048;52.220;5.160;2023-02-28T09:09:37;103103.81;;;4.30;79.26
68230;BME280;55048;52.220;5.160;2023-02-28T09:12:03;103140.53;;;4.51;78.75
68230;BME280;55048;52.220;5.160;2023-02-28T09:14:29;103126.81;;;4.57;78.50
68230;BME280;55048;52.220;5.160;2023-02-28T09:16:54;103021.47;;;3.89;78.33
68230;BME280;55048;52.220;5.160;2023-02-28T09:19:20;103092.84;;;4.25;78.55
68230;BME280;55048;52.220;5.160;2023-02-28T09:21:45;103116.81;;;4.41;78.38
68230;BME280;55048;52.220;5.160;2023-02-28T09:24:11;103153.28;;;4.46;77.50
68230;BME280;55048;52.220;5.160;2023-02-28T09:26:39;103166.59;;;4.64;77.40
68230;BME280;55048;52.220;5.160;2023-02-28T09:29:05;103119.44;;;4.41;77.64
68230;BME280;55048;52.220;5.160;2023-02-28T09:31:31;102995.25;;;3.49;76.96
68230;BME280;55048;52.220;5.160;2023-02-28T09:33:57;103122.38;;;4.48;76.36
68230;BME280;55048;52.220;5.160;2023-02-28T09:36:25;103130.69;;;4.53;75.99
68230;BME280;55048;52.220;5.160;2023-02-28T09:38:51;103177.69;;;4.86;76.04
68230;BME280;55048;52.220;5.160;2023-02-28T09:41:44;103167.81;;;4.89;73.90
68230;BME280;55048;52.220;5.160;2023-02-28T09:44:37;103173.06;;;4.98;73.87
68230;BME280;55048;52.220;5.160;2023-02-28T09:49:41;103079.69;;;4.25;73.08
68230;BME280;55048;52.220;5.160;2023-02-28T09:52:15;103159.59;;;5.01;73.79
68230;BME280;55048;52.220;5.160;2023-02-28T09:54:42;103079.22;;;4.58;73.10
68230;BME280;55048;52.220;5.160;2023-02-28T09:57:24;103184.66;;;5.25;72.21
68230;BME280;55048;52.220;5.160;2023-02-28T10:00:05;103174.69;;;5.19;67.04
68230;BME280;55048;52.220;5.160;2023-02-28T10:05:20;103168.47;;;5.47;69.94
68230;BME280;55048;52.220;5.160;2023-02-28T10:10:31;103169.03;;;5.51;66.52
68230;BME280;55048;52.220;5.160;2023-02-28T10:13:00;103107.38;;;5.15;67.80
68230;BME280;55048;52.220;5.160;2023-02-28T10:15:30;103174.81;;;5.54;66.58
68230;BME280;55048;52.220;5.160;2023-02-28T10:18:00;103179.16;;;5.55;64.52
68230;BME280;55048;52.220;5.160;2023-02-28T10:20:27;103161.63;;;5.54;65.19
68230;BME280;55048;52.220;5.160;2023-02-28T10:25:38;103152.72;;;5.65;65.84
68230;BME280;55048;52.220;5.160;2023-02-28T10:28:12;103178.28;;;5.92;63.67
68230;BME280;55048;52.220;5.160;2023-02-28T10:30:41;103119.78;;;5.59;63.19
68230;BME280;55048;52.220;5.160;2023-02-28T10:35:44;103093.94;;;5.63;62.41
68230;BME280;55048;52.220;5.160;2023-02-28T10:38:15;103068.28;;;5.55;61.08
68230;BME280;55048;52.220;5.160;2023-02-28T10:40:42;103071.31;;;5.60;62.17
68230;BME280;55048;52.220;5.160;2023-02-28T10:45:58;103111.28;;;6.29;61.12
68230;BME280;55048;52.220;5.160;2023-02-28T10:48:50;103149.31;;;6.72;61.59
68230;BME280;55048;52.220;5.160;2023-02-28T10:51:22;103110.72;;;6.61;60.96
68230;BME280;55048;52.220;5.160;2023-02-28T10:53:50;103156.69;;;6.86;58.43
68230;BME280;55048;52.220;5.160;2023-02-28T10:56:19;103122.44;;;6.58;55.26
68230;BME280;55048;52.220;5.160;2023-02-28T11:01:42;103129.22;;;6.61;51.70
68230;BME280;55048;52.220;5.160;2023-02-28T11:06:45;103037.72;;;6.42;52.83
68230;BME280;55048;52.220;5.160;2023-02-28T11:11:49;103109.16;;;7.02;49.97
68230;BME280;55048;52.220;5.160;2023-02-28T11:14:27;103105.41;;;7.13;48.11
68230;BME280;55048;52.220;5.160;2023-02-28T11:16:54;103049.47;;;7.00;49.41
68230;BME280;55048;52.220;5.160;2023-02-28T11:19:26;103099.94;;;7.49;47.41
68230;BME280;55048;52.220;5.160;2023-02-28T11:21:56;103124.50;;;7.67;47.65
68230;BME280;55048;52.220;5.160;2023-02-28T11:24:36;103123.56;;;7.84;47.17
68230;BME280;55048;52.220;5.160;2023-02-28T11:27:05;103053.75;;;7.43;47.67
68230;BME280;55048;52.220;5.160;2023-02-28T11:29:32;103066.13;;;7.34;46.41
68230;BME280;55048;52.220;5.160;2023-02-28T11:32:11;103107.88;;;7.49;44.21
68230;BME280;55048;52.220;5.160;2023-02-28T11:34:38;103106.75;;;7.51;45.27
68230;BME280;55048;52.220;5.160;2023-02-28T11:37:08;103103.69;;;7.30;43.89
68230;BME280;55048;52.220;5.160;2023-02-28T11:39:35;103051.47;;;7.06;45.70
68230;BME280;55048;52.220;5.160;2023-02-28T11:45:22;103087.78;;;7.30;43.12
68230;BME280;55048;52.220;5.160;2023-02-28T11:50:31;103083.38;;;7.38;45.54
68230;BME280;55048;52.220;5.160;2023-02-28T11:53:10;103088.34;;;7.41;44.37
68230;BME280;55048;52.220;5.160;2023-02-28T11:55:42;103027.88;;;7.21;45.60
68230;BME280;55048;52.220;5.160;2023-02-28T11:58:58;103091.22;;;7.56;44.07
68230;BME280;55048;52.220;5.160;2023-02-28T12:01:41;103071.66;;;7.49;44.44
68230;BME280;55048;52.220;5.160;2023-02-28T12:20:49;103041.75;;;7.23;42.04
68230;BME280;55048;52.220;5.160;2023-02-28T12:23:27;103030.03;;;7.25;43.00
68230;BME280;55048;52.220;5.160;2023-02-28T12:28:39;103076.66;;;7.60;42.99
68230;BME280;55048;52.220;5.160;2023-02-28T12:31:29;103073.81;;;7.54;41.38
68230;BME280;55048;52.220;5.160;2023-02-28T12:34:31;103066.03;;;7.52;40.53
68230;BME280;55048;52.220;5.160;2023-02-28T12:37:02;103048.97;;;7.47;41.54
68230;BME280;55048;52.220;5.160;2023-02-28T12:39:34;103064.25;;;7.61;40.58
68230;BME280;55048;52.220;5.160;2023-02-28T12:42:05;103064.25;;;7.61;41.53
68230;BME280;55048;52.220;5.160;2023-02-28T12:44:42;102952.06;;;6.95;41.07
68230;BME280;55048;52.220;5.160;2023-02-28T12:47:14;103008.25;;;7.39;40.77
68230;BME280;55048;52.220;5.160;2023-02-28T12:49:50;103062.44;;;7.70;41.14
68230;BME280;55048;52.220;5.160;2023-02-28T12:52:28;103037.91;;;7.51;40.66
68230;BME280;55048;52.220;5.160;2023-02-28T12:55:03;102993.16;;;7.32;40.78
68230;BME280;55048;52.220;5.160;2023-02-28T12:57:39;102923.75;;;6.87;40.69
68230;BME280;55048;52.220;5.160;2023-02-28T13:00:10;103061.28;;;7.72;40.43
68230;BME280;55048;52.220;5.160;2023-02-28T13:03:00;103043.88;;;7.61;40.67
68230;BME280;55048;52.220;5.160;2023-02-28T13:10:51;103036.63;;;7.80;41.75
68230;BME280;55048;52.220;5.160;2023-02-28T13:13:22;102973.66;;;7.33;40.81
68230;BME280;55048;52.220;5.160;2023-02-28T13:16:04;103038.44;;;7.87;41.15
68230;BME280;55048;52.220;5.160;2023-02-28T13:18:34;102992.56;;;7.62;40.82
68230;BME280;55048;52.220;5.160;2023-02-28T13:21:02;103026.66;;;7.74;40.73
68230;BME280;55048;52.220;5.160;2023-02-28T13:23:41;103036.28;;;7.83;39.95
68230;BME280;55048;52.220;5.160;2023-02-28T13:26:22;102938.91;;;7.20;39.63
68230;BME280;55048;52.220;5.160;2023-02-28T13:31:14;103019.09;;;7.79;39.85
68230;BME280;55048;52.220;5.160;2023-02-28T13:38:52;103009.66;;;7.84;39.46
68230;BME280;55048;52.220;5.160;2023-02-28T13:44:00;103020.22;;;7.92;39.24
68230;BME280;55048;52.220;5.160;2023-02-28T13:46:27;103001.19;;;7.81;39.69
68230;BME280;55048;52.220;5.160;2023-02-28T13:48:52;103003.84;;;7.81;39.59
68230;BME280;55048;52.220;5.160;2023-02-28T13:54:16;102978.97;;;7.49;37.93
68230;BME280;55048;52.220;5.160;2023-02-28T14:07:18;102968.06;;;7.52;38.81
68230;BME280;55048;52.220;5.160;2023-02-28T14:09:51;102988.94;;;7.72;39.11
68230;BME280;55048;52.220;5.160;2023-02-28T14:17:59;102999.03;;;7.92;39.00
68230;BME280;55048;52.220;5.160;2023-02-28T14:20:30;102951.34;;;7.68;39.10
68230;BME280;55048;52.220;5.160;2023-02-28T14:23:10;102931.31;;;7.49;38.40
68230;BME280;55048;52.220;5.160;2023-02-28T14:25:51;102976.34;;;7.82;38.99
68230;BME280;55048;52.220;5.160;2023-02-28T14:28:43;102990.59;;;7.89;38.89
68230;BME280;55048;52.220;5.160;2023-02-28T14:31:33;102968.06;;;7.68;39.08
68230;BME280;55048;52.220;5.160;2023-02-28T14:37:00;102971.41;;;7.71;38.64
68230;BME280;55048;52.220;5.160;2023-02-28T14:39:27;102988.44;;;7.84;38.95
68230;BME280;55048;52.220;5.160;2023-02-28T14:41:56;102986.31;;;7.80;38.72
68230;BME280;55048;52.220;5.160;2023-02-28T14:44:27;102988.28;;;7.70;38.77
68230;BME280;55048;52.220;5.160;2023-02-28T14:47:01;102984.31;;;7.65;39.61
68230;BME280;55048;52.220;5.160;2023-02-28T14:49:43;102984.97;;;7.67;39.40
68230;BME280;55048;52.220;5.160;2023-02-28T14:52:26;102982.81;;;7.71;39.61
68230;BME280;55048;52.220;5.160;2023-02-28T14:55:22;102969.72;;;7.53;39.59
68230;BME280;55048;52.220;5.160;2023-02-28T14:57:59;102983.97;;;7.60;40.51
68230;BME280;55048;52.220;5.160;2023-02-28T15:00:28;102982.63;;;7.56;39.75
68230;BME280;55048;52.220;5.160;2023-02-28T15:02:58;102918.88;;;7.17;39.79
68230;BME280;55048;52.220;5.160;2023-02-28T15:05:26;102985.44;;;7.55;40.19
68230;BME280;55048;52.220;5.160;2023-02-28T15:08:13;102992.06;;;7.51;40.54
68230;BME280;55048;52.220;5.160;2023-02-28T15:10:44;102921.34;;;7.10;40.02